Time;durP1;ratioP1;P1;durP2;ratioP2;P2;SDS_P1;SDS_P2;PMS_P1;PMS_P2;Temp;Humidity;BMP_temperature;BMP_pressure;BME280_temperature;BME280_humidity;BME280_pressure;Samples;Min_cycle;Max_cycle;Signal;HPM_P1;HPM_P2
2021/09/03 00:00:02;;;;;;;;;;;;;;;24.45;62.45;101502.75;4995176;28;1100;-47
2021/09/03 00:02:28;;;;;;;;;;;;;;;24.41;62.86;101511.19;4995080;28;1399;-47
2021/09/03 00:04:54;;;;;;;;;;;;;;;24.43;62.97;101505.59;4995089;28;1112;-47
2021/09/03 00:07:21;;;;;;;;;;;;;;;24.42;63.31;101514.72;4995178;28;1102;-47
2021/09/03 00:09:48;;;;;;;;;;;;;;;24.45;63.31;101518.97;4994942;28;1096;-47
2021/09/03 00:12:14;;;;;;;;;;;;;;;24.39;62.49;101504.22;4995203;28;1906;-47
2021/09/03 00:14:42;;;;;;;;;;;;;;;24.38;62.46;101494.41;4995213;28;1066;-47
2021/09/03 00:17:09;;;;;;;;;;;;;;;24.42;62.75;101518.28;4995172;28;992;-47
2021/09/03 00:19:35;;;;;;;;;;;;;;;24.40;63.28;101511.31;4994773;28;1163;-48
2021/09/03 00:22:02;;;;;;;;;;;;;;;24.42;63.04;101514.72;4995100;28;994;-47
2021/09/03 00:24:28;;;;;;;;;;;;;;;24.38;62.47;101500.66;4994778;28;1080;-47
2021/09/03 00:26:55;;;;;;;;;;;;;;;24.42;62.92;101514.72;4995044;28;1008;-48
2021/09/03 00:29:21;;;;;;;;;;;;;;;24.38;63.13;101497.97;4994979;28;1002;-48
2021/09/03 00:31:49;;;;;;;;;;;;;;;24.36;62.73;101493.72;4994600;28;1286;-48
2021/09/03 00:34:16;;;;;;;;;;;;;;;24.37;62.54;101496.28;4994865;28;1973;-47
2021/09/03 00:36:43;;;;;;;;;;;;;;;24.40;63.21;101505.91;4994567;28;1097;-47
2021/09/03 00:39:10;;;;;;;;;;;;;;;24.41;62.74;101513.00;4994855;28;997;-47
2021/09/03 00:41:36;;;;;;;;;;;;;;;24.42;62.81;101514.72;4994756;28;1078;-47
2021/09/03 00:44:03;;;;;;;;;;;;;;;24.41;63.20;101507.59;4994679;28;1080;-47
2021/09/03 00:46:29;;;;;;;;;;;;;;;24.38;63.03;101513.34;4994423;28;1071;-47
2021/09/03 00:48:58;;;;;;;;;;;;;;;24.38;62.55;101507.94;4994596;28;1950;-47
2021/09/03 00:51:24;;;;;;;;;;;;;;;24.41;62.89;101519.28;4994298;28;1120;-47
2021/09/03 00:53:51;;;;;;;;;;;;;;;24.38;63.24;101502.53;4994545;28;1907;-47
2021/09/03 00:56:18;;;;;;;;;;;;;;;24.37;62.57;101506.22;4994515;28;994;-48
2021/09/03 00:58:44;;;;;;;;;;;;;;;24.37;62.38;101512.50;4994206;28;959;-47
2021/09/03 01:01:11;;;;;;;;;;;;;;;24.35;62.77;101513.63;4994498;28;1077;-48
2021/09/03 01:03:37;;;;;;;;;;;;;;;24.36;62.33;101505.38;4994033;28;1166;-47
2021/09/03 01:06:05;;;;;;;;;;;;;;;24.35;62.83;101502.81;4994454;28;1076;-48
2021/09/03 01:08:32;;;;;;;;;;;;;;;24.37;63.22;101514.31;4994545;28;1056;-48
2021/09/03 01:10:59;;;;;;;;;;;;;;;24.39;63.21;101507.78;4994399;28;1004;-47
2021/09/03 01:13:26;;;;;;;;;;;;;;;24.35;62.80;101502.81;4994318;28;1906;-47
2021/09/03 01:15:52;;;;;;;;;;;;;;;24.34;63.12;101498.44;4994321;28;1084;-48
2021/09/03 01:18:19;;;;;;;;;;;;;;;24.37;62.92;101512.50;4993775;28;1070;-47
2021/09/03 01:20:46;;;;;;;;;;;;;;;24.40;63.36;101516.75;4993940;28;1112;-47
2021/09/03 01:23:14;;;;;;;;;;;;;;;24.37;62.88;101517.03;4993941;28;1100;-47
2021/09/03 01:25:41;;;;;;;;;;;;;;;24.36;62.73;101516.19;4993945;28;1116;-47
2021/09/03 01:28:08;;;;;;;;;;;;;;;24.35;63.21;101494.72;4994253;28;1073;-47
2021/09/03 01:30:34;;;;;;;;;;;;;;;24.37;63.07;101509.78;4994432;28;994;-48
2021/09/03 01:33:01;;;;;;;;;;;;;;;24.35;62.87;101509.09;4994070;28;1974;-48
2021/09/03 01:35:27;;;;;;;;;;;;;;;24.32;62.94;101514.78;4993910;28;1202;-47
2021/09/03 01:37:54;;;;;;;;;;;;;;;24.37;63.35;101511.63;4994150;28;1001;-48
2021/09/03 01:40:22;;;;;;;;;;;;;;;24.38;63.23;101524.16;4993830;28;1092;-47
2021/09/03 01:42:48;;;;;;;;;;;;;;;24.38;63.32;101516.03;4994436;28;1080;-47
2021/09/03 01:45:15;;;;;;;;;;;;;;;24.37;63.23;101522.44;4993727;28;1089;-47
2021/09/03 01:47:41;;;;;;;;;;;;;;;24.36;63.16;101515.34;4994166;28;1045;-47
2021/09/03 01:50:08;;;;;;;;;;;;;;;24.32;63.01;101525.59;4993781;28;1151;-47
2021/09/03 01:52:35;;;;;;;;;;;;;;;24.35;62.47;101525.31;4993669;28;1907;-47
2021/09/03 01:55:01;;;;;;;;;;;;;;;24.35;63.24;101527.16;4994041;28;1008;-47
2021/09/03 01:57:29;;;;;;;;;;;;;;;24.35;63.26;101524.44;4993927;28;1052;-47
2021/09/03 01:59:55;;;;;;;;;;;;;;;24.33;62.38;101531.84;4993656;28;1001;-47
2021/09/03 02:02:22;;;;;;;;;;;;;;;24.35;62.89;101532.56;5099797;22;3789;-48
2021/09/03 02:04:48;;;;;;;;;;;;;;;24.35;62.82;101529.84;5013224;28;1095;-47
2021/09/03 02:07:15;;;;;;;;;;;;;;;24.36;62.62;101536.97;5013444;28;1046;-48
2021/09/03 02:09:41;;;;;;;;;;;;;;;24.30;62.69;101522.19;5013401;28;1007;-48
2021/09/03 02:12:12;;;;;;;;;;;;;;;24.31;62.62;101532.03;5013165;28;1091;-48
2021/09/03 02:14:40;;;;;;;;;;;;;;;24.35;62.84;101546.94;5013338;28;1969;-48
2021/09/03 02:17:06;;;;;;;;;;;;;;;24.35;63.27;101532.56;5013450;28;1002;-48
2021/09/03 02:19:33;;;;;;;;;;;;;;;24.31;62.77;101525.75;5013393;28;999;-48
2021/09/03 02:21:59;;;;;;;;;;;;;;;24.34;63.20;101517.34;5012979;28;1104;-47
2021/09/03 02:24:26;;;;;;;;;;;;;;;24.35;63.18;101533.41;5013088;28;1346;-47
2021/09/03 02:26:52;;;;;;;;;;;;;;;24.32;62.85;101532.88;5013039;28;1154;-47
2021/09/03 02:29:19;;;;;;;;;;;;;;;24.32;63.27;101522.06;5012988;28;1162;-47
2021/09/03 02:31:46;;;;;;;;;;;;;;;24.32;63.20;101535.56;5016711;28;998;-48
2021/09/03 02:34:13;;;;;;;;;;;;;;;24.31;63.34;101523.03;5016373;28;1985;-48
2021/09/03 02:36:40;;;;;;;;;;;;;;;24.29;62.70;101525.06;5016600;28;1019;-48
2021/09/03 02:39:06;;;;;;;;;;;;;;;24.29;63.17;101535.88;5016677;28;1070;-48
2021/09/03 02:41:32;;;;;;;;;;;;;;;24.29;62.84;101533.16;5016287;28;986;-47
2021/09/03 02:43:59;;;;;;;;;;;;;;;24.30;63.24;101537.59;5016563;28;1077;-48
2021/09/03 02:46:26;;;;;;;;;;;;;;;24.32;63.31;101541.81;5016163;28;1107;-47
2021/09/03 02:48:54;;;;;;;;;;;;;;;24.29;63.32;101525.06;5016490;28;1062;-47
2021/09/03 02:51:20;;;;;;;;;;;;;;;24.30;62.75;101529.47;5016148;28;1168;-47
2021/09/03 02:53:47;;;;;;;;;;;;;;;24.35;63.21;101535.25;5016008;28;1902;-47
2021/09/03 02:56:13;;;;;;;;;;;;;;;24.29;62.98;101527.75;5016395;28;1095;-47
2021/09/03 02:58:40;;;;;;;;;;;;;;;24.32;63.18;101525.59;5016295;28;1073;-48
2021/09/03 03:01:06;;;;;;;;;;;;;;;24.29;63.21;101519.66;5016590;28;2060;-48
2021/09/03 03:03:32;;;;;;;;;;;;;;;24.29;62.77;101528.63;5015579;28;1290;-47
2021/09/03 03:06:00;;;;;;;;;;;;;;;24.29;62.89;101530.47;5015868;28;1128;-48
2021/09/03 03:08:27;;;;;;;;;;;;;;;24.28;62.73;101512.56;5015813;28;1178;-48
2021/09/03 03:10:53;;;;;;;;;;;;;;;24.29;63.03;101538.56;5015779;28;1300;-47
2021/09/03 03:13:22;;;;;;;;;;;;;;;24.28;62.22;101539.59;5015701;28;1977;-47
2021/09/03 03:15:49;;;;;;;;;;;;;;;24.31;63.28;101542.84;5016029;28;1273;-47
2021/09/03 03:18:15;;;;;;;;;;;;;;;24.31;63.30;101542.84;5015544;28;1092;-48
2021/09/03 03:20:42;;;;;;;;;;;;;;;24.26;62.72;101541.59;5015627;28;1107;-48
2021/09/03 03:23:10;;;;;;;;;;;;;;;24.28;62.71;101534.19;5015844;28;1040;-48
2021/09/03 03:25:36;;;;;;;;;;;;;;;24.27;62.48;101533.31;5015791;28;1018;-47
2021/09/03 03:28:03;;;;;;;;;;;;;;;24.28;63.33;101535.03;5015451;28;1068;-47
2021/09/03 03:30:29;;;;;;;;;;;;;;;24.28;62.76;101539.59;5015593;28;1075;-47
2021/09/03 03:32:56;;;;;;;;;;;;;;;24.27;63.23;101532.47;5016050;28;1938;-47
2021/09/03 03:35:22;;;;;;;;;;;;;;;24.31;62.93;101544.66;5015367;28;1009;-47
2021/09/03 03:37:49;;;;;;;;;;;;;;;24.26;63.06;101528.06;5015575;28;1018;-47
2021/09/03 03:40:17;;;;;;;;;;;;;;;24.28;63.32;101539.59;5015212;28;1043;-47
2021/09/03 03:42:44;;;;;;;;;;;;;;;24.29;63.30;101541.28;5015464;28;1062;-48
2021/09/03 03:45:11;;;;;;;;;;;;;;;24.26;63.22;101541.59;5015122;28;1242;-48
2021/09/03 03:47:37;;;;;;;;;;;;;;;24.26;62.29;101536.19;5015389;28;1168;-47
2021/09/03 03:50:04;;;;;;;;;;;;;;;24.24;63.29;101543.59;5015334;28;1011;-48
2021/09/03 03:52:31;;;;;;;;;;;;;;;24.23;62.43;101553.53;5014989;28;1166;-48
2021/09/03 03:54:57;;;;;;;;;;;;;;;24.29;63.06;101554.78;5015335;28;1977;-47
2021/09/03 03:57:25;;;;;;;;;;;;;;;24.30;62.90;101549.22;5015646;28;2048;-47
2021/09/03 03:59:51;;;;;;;;;;;;;;;24.27;63.15;101560.34;5015165;28;1015;-47
2021/09/03 04:02:18;;;;;;;;;;;;;;;24.28;62.70;101558.50;5014809;28;1318;-47
2021/09/03 04:04:44;;;;;;;;;;;;;;;24.27;63.27;101565.75;5014780;28;1167;-47
2021/09/03 04:07:11;;;;;;;;;;;;;;;24.30;63.14;101575.41;5014673;28;1075;-48
2021/09/03 04:09:37;;;;;;;;;;;;;;;24.26;63.14;101565.91;5014707;28;1052;-48
2021/09/03 04:12:04;;;;;;;;;;;;;;;24.26;63.24;101560.50;5014603;28;1160;-48
2021/09/03 04:14:32;;;;;;;;;;;;;;;24.25;63.27;101575.84;5014555;28;1969;-48
2021/09/03 04:16:58;;;;;;;;;;;;;;;24.28;63.24;101567.47;5014882;28;1052;-48
2021/09/03 04:19:25;;;;;;;;;;;;;;;24.24;62.95;101567.91;5014480;28;1951;-48
2021/09/03 04:21:51;;;;;;;;;;;;;;;24.28;62.76;101555.81;5014465;28;1091;-48
2021/09/03 04:24:18;;;;;;;;;;;;;;;24.22;62.54;101563.50;5014727;28;1092;-48
2021/09/03 04:26:44;;;;;;;;;;;;;;;24.27;62.84;101549.53;5014705;28;1081;-47
2021/09/03 04:29:11;;;;;;;;;;;;;;;24.28;63.23;101575.56;5014314;28;1096;-48
2021/09/03 04:31:39;;;;;;;;;;;;;;;24.27;62.70;101562.19;5014558;28;1089;-48
2021/09/03 04:34:05;;;;;;;;;;;;;;;24.27;63.20;101565.75;5014203;28;1981;-48
2021/09/03 04:36:32;;;;;;;;;;;;;;;24.23;63.19;101558.94;5014558;28;1039;-48
2021/09/03 04:38:58;;;;;;;;;;;;;;;24.25;62.81;101564.19;5014501;28;1067;-47
2021/09/03 04:41:25;;;;;;;;;;;;;;;24.25;63.17;101564.19;5014444;28;987;-48
2021/09/03 04:43:51;;;;;;;;;;;;;;;24.26;62.86;101564.06;5014378;28;1056;-47
2021/09/03 04:46:18;;;;;;;;;;;;;;;24.25;62.85;101564.19;5014072;28;1127;-48
2021/09/03 04:48:46;;;;;;;;;;;;;;;24.22;63.03;101568.91;5014345;28;1035;-47
2021/09/03 04:51:12;;;;;;;;;;;;;;;24.21;63.29;101572.63;5014312;28;963;-48
2021/09/03 04:53:39;;;;;;;;;;;;;;;24.25;63.01;101566.91;5013325;28;1902;-48
2021/09/03 04:56:06;;;;;;;;;;;;;;;24.26;62.37;101568.63;5014276;28;1015;-47
2021/09/03 04:58:32;;;;;;;;;;;;;;;24.28;63.04;101577.44;5014253;28;1008;-47
2021/09/03 05:00:59;;;;;;;;;;;;;;;24.26;63.01;101574.88;5013894;28;1183;-48
2021/09/03 05:03:25;;;;;;;;;;;;;;;24.28;62.97;101577.44;5013556;28;1284;-47
2021/09/03 05:05:53;;;;;;;;;;;;;;;24.24;62.54;101576.03;5014033;28;1096;-48
2021/09/03 05:08:20;;;;;;;;;;;;;;;24.25;62.80;101566.91;5013785;28;1164;-48
2021/09/03 05:10:46;;;;;;;;;;;;;;;24.28;63.02;101572.88;5014094;28;1051;-47
2021/09/03 05:13:13;;;;;;;;;;;;;;;24.26;62.73;101563.22;5013745;28;1154;-48
2021/09/03 05:15:41;;;;;;;;;;;;;;;24.29;62.97;101579.13;5013971;28;1969;-47
2021/09/03 05:18:07;;;;;;;;;;;;;;;24.24;62.58;101570.63;5013996;28;1035;-48
2021/09/03 05:20:34;;;;;;;;;;;;;;;24.24;62.13;101568.75;5013660;28;1071;-48
2021/09/03 05:23:02;;;;;;;;;;;;;;;24.27;63.02;101565.75;5013911;28;1077;-48
2021/09/03 05:25:29;;;;;;;;;;;;;;;24.24;62.98;101560.66;5013592;28;1126;-47
2021/09/03 05:27:55;;;;;;;;;;;;;;;24.30;62.56;101564.59;5013923;28;963;-48
2021/09/03 05:30:22;;;;;;;;;;;;;;;24.27;62.71;101562.19;5013795;28;999;-47
2021/09/03 05:32:48;;;;;;;;;;;;;;;24.27;62.50;101571.16;5013528;28;1108;-47
2021/09/03 05:35:15;;;;;;;;;;;;;;;24.26;62.36;101568.63;5013473;28;1906;-47
2021/09/03 05:37:41;;;;;;;;;;;;;;;24.29;62.69;101560.19;5013503;28;954;-47
2021/09/03 05:40:10;;;;;;;;;;;;;;;24.23;62.41;101567.03;5013514;28;1048;-48
2021/09/03 05:42:36;;;;;;;;;;;;;;;24.27;62.15;101567.59;5013639;28;1081;-48
2021/09/03 05:45:03;;;;;;;;;;;;;;;24.27;62.32;101575.72;5013760;28;1114;-47
2021/09/03 05:47:29;;;;;;;;;;;;;;;24.25;62.39;101566.91;5013466;28;1165;-48
2021/09/03 05:49:56;;;;;;;;;;;;;;;24.24;62.60;101562.50;5013416;28;1142;-48
2021/09/03 05:52:23;;;;;;;;;;;;;;;24.26;62.18;101574.88;5013424;28;1138;-48
2021/09/03 05:54:49;;;;;;;;;;;;;;;24.25;62.55;101577.72;5013506;28;1973;-47
2021/09/03 05:57:17;;;;;;;;;;;;;;;24.25;62.80;101575.84;5013336;28;1072;-48
2021/09/03 05:59:43;;;;;;;;;;;;;;;24.28;62.22;101586.38;5014504;28;1047;-47
2021/09/03 06:02:10;;;;;;;;;;;;;;;24.28;62.82;101582.84;5013028;28;1258;-48
2021/09/03 06:04:36;;;;;;;;;;;;;;;24.27;61.96;101576.56;5015091;28;1080;-47
2021/09/03 06:07:03;;;;;;;;;;;;;;;24.24;62.71;101565.22;5017218;28;1070;-48
2021/09/03 06:09:29;;;;;;;;;;;;;;;24.25;62.27;101588.53;5016954;28;1095;-47
2021/09/03 06:11:57;;;;;;;;;;;;;;;24.28;62.41;101577.44;5017107;28;1059;-47
2021/09/03 06:14:25;;;;;;;;;;;;;;;24.26;62.24;101584.84;5017165;28;1906;-47
2021/09/03 06:16:51;;;;;;;;;;;;;;;24.26;62.42;101574.88;5017095;28;1012;-48
2021/09/03 06:19:18;;;;;;;;;;;;;;;24.28;62.74;101586.38;5016649;28;1124;-47
2021/09/03 06:21:44;;;;;;;;;;;;;;;24.27;62.74;101591.94;5017099;28;1092;-47
2021/09/03 06:26:51;;;;;;;;;;;;;;;24.27;62.70;101586.53;5016792;28;1559;-47
2021/09/03 06:29:37;;;;;;;;;;;;;;;24.24;62.14;101587.69;5016870;28;1225;-48
2021/09/03 06:32:05;;;;;;;;;;;;;;;24.29;62.54;101598.03;5017391;28;1023;-47
2021/09/03 06:34:32;;;;;;;;;;;;;;;24.28;62.22;101588.25;5016407;28;1914;-47
2021/09/03 06:36:58;;;;;;;;;;;;;;;24.27;61.80;101578.41;5016456;28;1167;-47
2021/09/03 06:39:24;;;;;;;;;;;;;;;24.29;61.67;101590.81;5016400;28;1131;-47
2021/09/03 06:41:51;;;;;;;;;;;;;;;24.29;61.93;101588.09;5016609;28;1078;-48
2021/09/03 06:44:17;;;;;;;;;;;;;;;24.29;62.52;101592.63;5016284;28;1160;-47
2021/09/03 06:46:44;;;;;;;;;;;;;;;24.28;62.18;101578.28;5016261;28;1076;-48
2021/09/03 06:49:12;;;;;;;;;;;;;;;24.31;61.65;101604.13;5016510;28;1077;-47
2021/09/03 06:51:38;;;;;;;;;;;;;;;24.32;61.89;101600.44;5016218;28;1088;-48
2021/09/03 06:54:05;;;;;;;;;;;;;;;24.34;62.47;101601.16;5016412;28;1985;-48
2021/09/03 06:56:31;;;;;;;;;;;;;;;24.31;62.42;101596.03;5016366;28;1019;-47
2021/09/03 06:58:59;;;;;;;;;;;;;;;24.32;61.86;101595.03;5016305;28;1040;-47
2021/09/03 07:01:25;;;;;;;;;;;;;;;24.29;61.94;101589.94;5016269;28;1039;-47
2021/09/03 07:03:52;;;;;;;;;;;;;;;24.33;62.45;101605.72;5015727;28;1507;-47
2021/09/03 07:06:20;;;;;;;;;;;;;;;24.33;62.39;101596.72;5015844;28;1183;-47
2021/09/03 07:08:46;;;;;;;;;;;;;;;24.29;61.89;101607.00;5015852;28;1077;-47
2021/09/03 07:11:13;;;;;;;;;;;;;;;24.34;62.45;101604.69;5016184;28;994;-47
2021/09/03 07:13:39;;;;;;;;;;;;;;;24.29;62.07;101593.50;5016068;28;1048;-48
2021/09/03 07:16:06;;;;;;;;;;;;;;;24.30;62.22;101592.47;5015351;28;1906;-47
2021/09/03 07:18:33;;;;;;;;;;;;;;;24.31;62.03;101601.44;5015919;28;1083;-48
2021/09/03 07:20:59;;;;;;;;;;;;;;;24.32;62.42;101601.28;5015874;28;1051;-47
2021/09/03 07:23:27;;;;;;;;;;;;;;;24.37;62.33;101601.72;5015550;28;1104;-48
2021/09/03 07:25:54;;;;;;;;;;;;;;;24.32;62.19;101601.28;5015828;28;1078;-48
2021/09/03 07:28:20;;;;;;;;;;;;;;;24.34;62.34;101598.44;5015471;28;1076;-47
2021/09/03 07:30:47;;;;;;;;;;;;;;;24.33;62.34;101610.25;5015631;28;1000;-47
2021/09/03 07:33:13;;;;;;;;;;;;;;;24.34;61.90;101604.69;5015703;28;1069;-47
2021/09/03 07:35:40;;;;;;;;;;;;;;;24.34;61.44;101593.03;5015555;28;1902;-47
2021/09/03 07:38:06;;;;;;;;;;;;;;;24.37;62.44;101604.41;5015358;28;1155;-47
2021/09/03 07:40:34;;;;;;;;;;;;;;;24.40;62.06;101611.34;5015781;28;1077;-48
2021/09/03 07:43:06;;;;;;;;;;;;;;;24.36;62.39;101607.25;5015417;28;1065;-47
2021/09/03 07:45:32;;;;;;;;;;;;;;;24.39;61.48;101601.53;5015136;28;1064;-47
2021/09/03 07:47:59;;;;;;;;;;;;;;;24.42;62.19;101595.84;5015623;28;996;-47
2021/09/03 07:50:25;;;;;;;;;;;;;;;24.45;62.35;101597.38;5015046;28;1163;-47
2021/09/03 07:52:52;;;;;;;;;;;;;;;24.46;61.36;101607.19;5015318;28;1073;-47
2021/09/03 07:55:18;;;;;;;;;;;;;;;24.41;61.62;101602.22;5015121;28;1972;-48
2021/09/03 07:57:46;;;;;;;;;;;;;;;24.48;61.63;101597.94;5015986;28;1007;-47
2021/09/03 08:00:13;;;;;;;;;;;;;;;24.45;62.22;101594.66;5015191;28;1073;-47
2021/09/03 08:02:39;;;;;;;;;;;;;;;24.41;62.05;101589.59;5014893;28;1325;-47
2021/09/03 08:05:06;;;;;;;;;;;;;;;24.45;62.28;101594.66;5014742;28;1103;-47
2021/09/03 08:07:33;;;;;;;;;;;;;;;24.42;61.41;101585.03;5014996;28;998;-47
2021/09/03 08:09:59;;;;;;;;;;;;;;;24.47;61.57;101580.03;5014973;28;1000;-47
2021/09/03 08:12:26;;;;;;;;;;;;;;;24.47;61.92;101582.72;5014559;28;1080;-47
2021/09/03 08:14:54;;;;;;;;;;;;;;;24.47;61.35;101571.91;5014876;28;1906;-47
2021/09/03 08:17:20;;;;;;;;;;;;;;;24.47;61.39;101555.69;5014582;28;1064;-47
2021/09/03 08:19:46;;;;;;;;;;;;;;;24.49;60.91;101569.91;5014779;28;999;-47
2021/09/03 08:22:13;;;;;;;;;;;;;;;24.49;61.38;101548.28;5014789;28;1019;-47
2021/09/03 08:24:40;;;;;;;;;;;;;;;24.50;61.94;101560.81;5014457;28;1124;-47
2021/09/03 08:27:06;;;;;;;;;;;;;;;24.50;61.45;101552.69;5014718;28;1058;-47
2021/09/03 08:29:33;;;;;;;;;;;;;;;24.50;61.46;101550.00;5014655;28;996;-47
2021/09/03 08:32:01;;;;;;;;;;;;;;;24.52;61.95;101558.78;5014254;28;1151;-47
2021/09/03 08:34:27;;;;;;;;;;;;;;;24.54;61.89;101545.97;5014296;28;1092;-47
2021/09/03 08:36:54;;;;;;;;;;;;;;;24.55;61.16;101542.28;5014201;28;1969;-47
2021/09/03 08:39:20;;;;;;;;;;;;;;;24.51;61.06;101535.47;5014500;28;1003;-47
2021/09/03 08:41:47;;;;;;;;;;;;;;;24.57;61.14;101542.97;5014426;28;1003;-47
2021/09/03 08:44:14;;;;;;;;;;;;;;;24.57;61.58;101539.41;5014067;28;1080;-47
2021/09/03 08:46:41;;;;;;;;;;;;;;;24.54;61.48;101540.56;5014370;28;1080;-47
2021/09/03 08:49:09;;;;;;;;;;;;;;;24.55;62.14;101525.19;5014091;28;1072;-47
2021/09/03 08:51:35;;;;;;;;;;;;;;;24.58;61.68;101552.78;5014224;28;1092;-47
2021/09/03 08:54:02;;;;;;;;;;;;;;;24.54;61.11;101510.81;5014205;28;1095;-48
2021/09/03 08:56:28;;;;;;;;;;;;;;;24.52;62.02;101512.84;5013879;28;1973;-47
2021/09/03 08:58:55;;;;;;;;;;;;;;;24.56;61.02;101514.22;5014526;28;1274;-47
2021/09/03 09:01:21;;;;;;;;;;;;;;;24.57;61.23;101523.19;5014086;28;1072;-47
2021/09/03 09:03:48;;;;;;;;;;;;;;;24.55;60.97;101509.84;5013830;28;1269;-47
2021/09/03 09:06:21;;;;;;;;;;;;;;;24.56;61.06;101506.09;5014033;28;1088;-48
2021/09/03 09:08:54;;;;;;;;;;;;;;;24.60;61.20;101502.09;5014100;28;1095;-47
2021/09/03 09:11:21;;;;;;;;;;;;;;;24.58;60.97;101487.88;5013999;28;1947;-47
2021/09/03 09:13:47;;;;;;;;;;;;;;;24.59;60.87;101481.47;5013724;28;1092;-47
2021/09/03 09:16:15;;;;;;;;;;;;;;;24.63;61.70;101487.44;5014173;28;1906;-47
2021/09/03 09:18:43;;;;;;;;;;;;;;;24.65;61.39;101487.25;5013960;28;1076;-47
2021/09/03 09:21:10;;;;;;;;;;;;;;;24.64;61.16;101478.28;5013944;28;1016;-47
2021/09/03 09:23:43;;;;;;;;;;;;;;;24.64;61.26;101475.59;5013656;28;1100;-47
2021/09/03 09:26:10;;;;;;;;;;;;;;;24.60;60.86;101466.09;5013907;28;1074;-47
2021/09/03 09:28:36;;;;;;;;;;;;;;;24.61;61.64;101465.06;5013916;28;1044;-47
2021/09/03 09:31:03;;;;;;;;;;;;;;;24.62;61.33;101461.38;5013780;28;987;-47
2021/09/03 09:33:29;;;;;;;;;;;;;;;24.66;61.40;101472.75;5013864;28;1081;-47
2021/09/03 09:35:57;;;;;;;;;;;;;;;24.65;61.14;101465.63;5013471;28;1910;-47
2021/09/03 09:38:24;;;;;;;;;;;;;;;24.62;61.52;101455.97;5013884;28;1048;-47
2021/09/03 09:40:54;;;;;;;;;;;;;;;24.67;60.92;101469.00;5017509;28;1163;-47
2021/09/03 09:43:25;;;;;;;;;;;;;;;24.64;60.87;101436.88;5017350;28;1095;-47
2021/09/03 09:46:10;;;;;;;;;;;;;;;24.66;60.95;101443.81;5017696;28;1035;-47
2021/09/03 09:48:53;;;;;;;;;;;;;;;24.71;61.30;101451.47;5017746;28;1078;-47
2021/09/03 09:51:20;;;;;;;;;;;;;;;24.71;60.69;101437.94;5017707;28;2033;-47
2021/09/03 09:53:53;;;;;;;;;;;;;;;24.69;60.71;101431.84;5017594;28;1004;-47
2021/09/03 09:56:21;;;;;;;;;;;;;;;24.71;60.90;101437.94;5017080;28;1906;-47
2021/09/03 09:58:49;;;;;;;;;;;;;;;24.72;60.83;101439.66;5017215;28;1128;-47
2021/09/03 10:01:17;;;;;;;;;;;;;;;24.73;60.81;101441.34;5017362;28;1124;-47
2021/09/03 10:03:44;;;;;;;;;;;;;;;24.74;60.96;101435.78;5016893;28;1389;-47
2021/09/03 10:06:11;;;;;;;;;;;;;;;24.77;61.53;101437.31;5016913;28;1171;-48
2021/09/03 10:08:38;;;;;;;;;;;;;;;24.76;60.61;101425.66;5016965;28;958;-47
2021/09/03 10:11:04;;;;;;;;;;;;;;;24.75;60.66;101425.78;5016840;28;1092;-47
2021/09/03 10:13:32;;;;;;;;;;;;;;;24.80;60.54;101434.31;5017183;28;1078;-47
2021/09/03 10:15:59;;;;;;;;;;;;;;;24.77;60.41;101418.38;5017353;28;1983;-47
2021/09/03 10:18:25;;;;;;;;;;;;;;;24.79;60.44;101435.31;5017007;28;1062;-48
2021/09/03 10:20:52;;;;;;;;;;;;;;;24.80;60.87;101432.44;5017083;28;1077;-47
2021/09/03 10:23:33;;;;;;;;;;;;;;;24.78;60.76;101422.78;5017052;28;1004;-47
2021/09/03 10:26:00;;;;;;;;;;;;;;;24.81;61.53;101433.31;5016493;28;1425;-47
2021/09/03 10:28:26;;;;;;;;;;;;;;;24.81;60.89;101425.19;5016625;28;1064;-47
2021/09/03 10:31:05;;;;;;;;;;;;;;;24.79;60.83;101406.41;5016798;28;1076;-47
2021/09/03 10:33:35;;;;;;;;;;;;;;;24.79;61.41;101424.50;5016526;28;1163;-47
2021/09/03 10:36:01;;;;;;;;;;;;;;;24.82;60.48;101413.34;5016714;28;1906;-47
2021/09/03 10:38:29;;;;;;;;;;;;;;;24.78;61.44;101411.97;5016426;28;1076;-47
2021/09/03 10:40:55;;;;;;;;;;;;;;;24.78;61.53;101406.56;5016399;28;1072;-48
2021/09/03 10:43:36;;;;;;;;;;;;;;;24.79;61.50;101400.16;5016308;28;1131;-47
2021/09/03 10:46:04;;;;;;;;;;;;;;;24.78;61.15;101401.16;5016177;28;1849;-47
2021/09/03 10:48:32;;;;;;;;;;;;;;;24.84;61.28;101413.19;5016548;28;1081;-47
2021/09/03 10:50:59;;;;;;;;;;;;;;;24.81;61.07;101403.56;5014952;28;1096;-48
2021/09/03 10:53:27;;;;;;;;;;;;;;;24.78;61.15;101396.59;5016492;28;1048;-47
2021/09/03 10:56:09;;;;;;;;;;;;;;;24.77;60.80;101380.50;5016549;28;1906;-47
2021/09/03 10:58:43;;;;;;;;;;;;;;;24.78;60.86;101380.34;5003795;28;1896;-48
2021/09/03 11:01:30;;;;;;;;;;;;;;;24.79;61.18;101382.06;5016071;28;1107;-47
2021/09/03 11:03:58;;;;;;;;;;;;;;;24.81;61.01;101379.22;5019500;28;1353;-47
2021/09/03 11:06:28;;;;;;;;;;;;;;;24.79;61.75;101383.94;5016153;28;1104;-48
2021/09/03 11:08:55;;;;;;;;;;;;;;;24.77;61.42;101372.38;5015855;28;1131;-47
2021/09/03 11:11:22;;;;;;;;;;;;;;;24.80;60.81;101366.69;5015804;28;1108;-48
2021/09/03 11:13:48;;;;;;;;;;;;;;;24.81;60.96;101368.38;5016091;28;992;-48
2021/09/03 11:19:10;;;;;;;;;;;;;;;24.85;60.79;101363.47;5133140;27;1242;-48
2021/09/03 11:21:38;;;;;;;;;;;;;;;24.81;60.95;101342.19;5131877;28;1142;-48
2021/09/03 11:24:05;;;;;;;;;;;;;;;24.81;61.70;101358.41;5132139;28;1053;-48
2021/09/03 11:26:32;;;;;;;;;;;;;;;24.87;61.62;101356.94;5132100;28;1041;-48
2021/09/03 11:29:02;;;;;;;;;;;;;;;24.84;60.91;101350.97;5131726;28;1070;-48
2021/09/03 11:31:28;;;;;;;;;;;;;;;24.82;60.71;101337.59;5131619;28;1125;-48
2021/09/03 11:33:54;;;;;;;;;;;;;;;24.81;60.80;101342.19;5131944;28;1028;-48
2021/09/03 11:36:22;;;;;;;;;;;;;;;24.83;61.02;101338.44;5131896;28;1087;-48
2021/09/03 11:38:53;;;;;;;;;;;;;;;24.79;60.95;101340.66;5131754;28;1979;-48
2021/09/03 11:41:20;;;;;;;;;;;;;;;24.84;61.74;101350.97;5131791;28;952;-48
2021/09/03 11:43:46;;;;;;;;;;;;;;;24.79;61.11;101337.94;5131382;28;1114;-48
2021/09/03 11:46:16;;;;;;;;;;;;;;;24.85;60.94;101341.84;5131374;28;945;-48
2021/09/03 11:48:43;;;;;;;;;;;;;;;24.82;60.67;101334.91;5131656;28;1095;-48
2021/09/03 11:51:15;;;;;;;;;;;;;;;24.83;60.79;101325.78;5131603;28;1071;-48
2021/09/03 11:53:43;;;;;;;;;;;;;;;24.81;60.83;101314.28;5131901;28;952;-48
2021/09/03 11:56:11;;;;;;;;;;;;;;;24.84;61.73;101324.78;5131572;28;1942;-48
2021/09/03 11:58:38;;;;;;;;;;;;;;;24.83;60.82;101327.63;5131374;28;1970;-48
2021/09/03 12:01:06;;;;;;;;;;;;;;;24.84;60.77;101319.34;5131436;28;1079;-48
2021/09/03 12:03:33;;;;;;;;;;;;;;;24.83;61.38;101314.97;5145736;27;1403;-48
2021/09/03 12:06:00;;;;;;;;;;;;;;;24.82;61.23;101315.97;5151718;27;1137;-48
2021/09/03 12:08:30;;;;;;;;;;;;;;;24.83;61.00;101311.41;5151567;27;1102;-48
2021/09/03 12:10:59;;;;;;;;;;;;;;;24.86;60.89;101306.53;5151478;27;944;-49
2021/09/03 12:13:26;;;;;;;;;;;;;;;24.82;60.86;101307.84;5151533;27;1070;-48
2021/09/03 12:16:00;;;;;;;;;;;;;;;24.79;61.05;101284.69;5151523;27;1063;-48
2021/09/03 12:18:28;;;;;;;;;;;;;;;24.77;61.18;101289.41;5151185;27;1979;-49
2021/09/03 12:20:56;;;;;;;;;;;;;;;24.80;61.68;101301.75;5151698;27;998;-48
2021/09/03 12:23:23;;;;;;;;;;;;;;;24.77;61.87;101299.34;5151350;27;1107;-49
2021/09/03 12:25:50;;;;;;;;;;;;;;;24.78;61.98;101298.38;5151658;27;1010;-49
2021/09/03 12:28:19;;;;;;;;;;;;;;;24.76;61.46;101295.81;5150947;27;1018;-48
2021/09/03 12:30:49;;;;;;;;;;;;;;;24.73;62.15;101300.69;5137222;27;961;-49
2021/09/03 12:33:23;;;;;;;;;;;;;;;24.74;61.43;101292.44;5137683;27;948;-48
2021/09/03 12:35:50;;;;;;;;;;;;;;;24.70;61.75;101282.09;5138193;27;1058;-48
2021/09/03 12:38:17;;;;;;;;;;;;;;;24.71;61.42;101281.06;5137208;27;1906;-48
2021/09/03 12:40:43;;;;;;;;;;;;;;;24.65;61.47;101269.06;5137172;27;1146;-48
2021/09/03 12:43:13;;;;;;;;;;;;;;;24.70;61.37;101268.56;5137378;27;1005;-48
2021/09/03 12:45:45;;;;;;;;;;;;;;;24.66;62.44;101262.63;5137129;27;1087;-48
2021/09/03 12:48:12;;;;;;;;;;;;;;;24.71;61.42;101264.84;5137874;27;1098;-48
2021/09/03 12:50:38;;;;;;;;;;;;;;;24.65;61.82;101250.13;5137325;27;1002;-48
2021/09/03 12:53:05;;;;;;;;;;;;;;;24.70;61.56;101268.56;5137082;27;1936;-48